sensor_id;sensor_type;location;lat;lon;timestamp;temperature;humidity
71047;SHT31;58703;48.978;8.982;2022-08-03T00:01:16;16.70;77.48
71047;SHT31;58703;48.978;8.982;2022-08-03T00:03:42;16.63;78.00
71047;SHT31;58703;48.978;8.982;2022-08-03T00:06:08;16.61;78.21
71047;SHT31;58703;48.978;8.982;2022-08-03T00:08:34;16.56;78.30
71047;SHT31;58703;48.978;8.982;2022-08-03T00:10:59;16.61;78.19
71047;SHT31;58703;48.978;8.982;2022-08-03T00:13:25;16.60;78.22
71047;SHT31;58703;48.978;8.982;2022-08-03T00:15:51;16.53;79.03
71047;SHT31;58703;48.978;8.982;2022-08-03T00:18:17;16.57;78.72
71047;SHT31;58703;48.978;8.982;2022-08-03T00:20:43;16.56;79.11
71047;SHT31;58703;48.978;8.982;2022-08-03T00:23:08;16.54;78.20
71047;SHT31;58703;48.978;8.982;2022-08-03T00:25:34;16.53;78.95
71047;SHT31;58703;48.978;8.982;2022-08-03T00:28:04;16.54;77.95
71047;SHT31;58703;48.978;8.982;2022-08-03T00:30:30;16.53;78.15
71047;SHT31;58703;48.978;8.982;2022-08-03T00:32:56;16.46;77.80
71047;SHT31;58703;48.978;8.982;2022-08-03T00:35:22;16.37;77.76
71047;SHT31;58703;48.978;8.982;2022-08-03T00:37:48;16.33;78.57
71047;SHT31;58703;48.978;8.982;2022-08-03T00:40:15;16.30;79.40
71047;SHT31;58703;48.978;8.982;2022-08-03T00:42:55;16.09;79.77
71047;SHT31;58703;48.978;8.982;2022-08-03T00:45:26;16.03;80.15
71047;SHT31;58703;48.978;8.982;2022-08-03T00:47:52;16.00;80.40
71047;SHT31;58703;48.978;8.982;2022-08-03T00:50:20;15.95;80.66
71047;SHT31;58703;48.978;8.982;2022-08-03T00:52:48;15.99;80.30
71047;SHT31;58703;48.978;8.982;2022-08-03T00:55:14;16.13;79.21
71047;SHT31;58703;48.978;8.982;2022-08-03T00:57:41;16.10;78.33
71047;SHT31;58703;48.978;8.982;2022-08-03T01:00:09;16.05;79.80
71047;SHT31;58703;48.978;8.982;2022-08-03T01:02:36;16.06;78.19
71047;SHT31;58703;48.978;8.982;2022-08-03T01:05:02;16.05;80.83
71047;SHT31;58703;48.978;8.982;2022-08-03T01:15:58;15.79;81.90
71047;SHT31;58703;48.978;8.982;2022-08-03T01:20:56;15.54;82.38
71047;SHT31;58703;48.978;8.982;2022-08-03T01:27:04;15.59;82.19
71047;SHT31;58703;48.978;8.982;2022-08-03T01:29:45;15.61;82.31
71047;SHT31;58703;48.978;8.982;2022-08-03T01:32:19;15.55;82.73
71047;SHT31;58703;48.978;8.982;2022-08-03T01:34:59;15.54;82.33
71047;SHT31;58703;48.978;8.982;2022-08-03T01:37:30;15.68;82.24
71047;SHT31;58703;48.978;8.982;2022-08-03T01:39:56;15.63;82.62
71047;SHT31;58703;48.978;8.982;2022-08-03T01:42:24;15.72;82.38
71047;SHT31;58703;48.978;8.982;2022-08-03T01:44:51;15.72;82.73
71047;SHT31;58703;48.978;8.982;2022-08-03T01:47:19;15.69;81.10
71047;SHT31;58703;48.978;8.982;2022-08-03T01:49:46;15.63;82.32
71047;SHT31;58703;48.978;8.982;2022-08-03T01:52:17;15.55;82.41
71047;SHT31;58703;48.978;8.982;2022-08-03T01:54:45;15.56;82.09
71047;SHT31;58703;48.978;8.982;2022-08-03T01:57:13;15.51;82.03
71047;SHT31;58703;48.978;8.982;2022-08-03T01:59:41;15.36;82.98
71047;SHT31;58703;48.978;8.982;2022-08-03T02:02:07;15.32;82.74
71047;SHT31;58703;48.978;8.982;2022-08-03T02:04:36;15.36;83.08
71047;SHT31;58703;48.978;8.982;2022-08-03T02:07:03;15.49;83.20
71047;SHT31;58703;48.978;8.982;2022-08-03T02:09:29;15.54;82.13
71047;SHT31;58703;48.978;8.982;2022-08-03T02:11:56;15.54;82.64
71047;SHT31;58703;48.978;8.982;2022-08-03T02:14:22;15.55;82.96
71047;SHT31;58703;48.978;8.982;2022-08-03T02:16:49;15.65;82.40
71047;SHT31;58703;48.978;8.982;2022-08-03T02:19:17;15.48;82.96
71047;SHT31;58703;48.978;8.982;2022-08-03T02:21:44;15.39;83.56
71047;SHT31;58703;48.978;8.982;2022-08-03T02:24:10;15.18;84.02
71047;SHT31;58703;48.978;8.982;2022-08-03T02:26:37;15.07;82.86
71047;SHT31;58703;48.978;8.982;2022-08-03T02:29:14;14.94;85.60
71047;SHT31;58703;48.978;8.982;2022-08-03T02:31:42;14.87;84.12
71047;SHT31;58703;48.978;8.982;2022-08-03T02:34:11;14.93;85.26
71047;SHT31;58703;48.978;8.982;2022-08-03T02:36:38;15.12;84.61
71047;SHT31;58703;48.978;8.982;2022-08-03T02:39:06;15.04;84.21
71047;SHT31;58703;48.978;8.982;2022-08-03T02:41:44;14.90;83.91
71047;SHT31;58703;48.978;8.982;2022-08-03T02:44:11;14.83;84.37
71047;SHT31;58703;48.978;8.982;2022-08-03T02:46:40;14.73;84.46
71047;SHT31;58703;48.978;8.982;2022-08-03T02:49:07;14.72;85.37
71047;SHT31;58703;48.978;8.982;2022-08-03T02:51:36;14.76;85.36
71047;SHT31;58703;48.978;8.982;2022-08-03T02:54:05;14.66;85.80
71047;SHT31;58703;48.978;8.982;2022-08-03T02:56:33;14.57;86.65
71047;SHT31;58703;48.978;8.982;2022-08-03T02:58:59;14.55;86.37
71047;SHT31;58703;48.978;8.982;2022-08-03T03:01:26;14.55;86.49
71047;SHT31;58703;48.978;8.982;2022-08-03T03:03:54;14.50;86.53
71047;SHT31;58703;48.978;8.982;2022-08-03T03:06:20;14.52;87.22
71047;SHT31;58703;48.978;8.982;2022-08-03T03:08:47;14.56;85.93
71047;SHT31;58703;48.978;8.982;2022-08-03T03:11:14;14.59;86.52
71047;SHT31;58703;48.978;8.982;2022-08-03T03:13:42;14.50;86.89
71047;SHT31;58703;48.978;8.982;2022-08-03T03:16:09;14.44;86.57
71047;SHT31;58703;48.978;8.982;2022-08-03T03:18:36;14.57;86.50
71047;SHT31;58703;48.978;8.982;2022-08-03T03:21:03;14.59;86.20
71047;SHT31;58703;48.978;8.982;2022-08-03T03:23:30;14.55;86.23
71047;SHT31;58703;48.978;8.982;2022-08-03T03:25:56;14.60;85.79
71047;SHT31;58703;48.978;8.982;2022-08-03T03:28:23;14.52;86.22
71047;SHT31;58703;48.978;8.982;2022-08-03T03:30:49;14.34;87.40
71047;SHT31;58703;48.978;8.982;2022-08-03T03:33:15;14.22;87.67
71047;SHT31;58703;48.978;8.982;2022-08-03T03:35:41;14.11;87.86
71047;SHT31;58703;48.978;8.982;2022-08-03T03:38:08;14.06;87.78
71047;SHT31;58703;48.978;8.982;2022-08-03T03:40:35;14.06;87.91
71047;SHT31;58703;48.978;8.982;2022-08-03T03:43:01;14.11;87.82
71047;SHT31;58703;48.978;8.982;2022-08-03T03:45:27;14.34;87.97
71047;SHT31;58703;48.978;8.982;2022-08-03T03:47:55;14.34;87.54
71047;SHT31;58703;48.978;8.982;2022-08-03T03:50:21;14.25;87.35
71047;SHT31;58703;48.978;8.982;2022-08-03T03:52:48;14.11;88.08
71047;SHT31;58703;48.978;8.982;2022-08-03T03:55:17;14.02;88.51
71047;SHT31;58703;48.978;8.982;2022-08-03T03:57:43;14.08;85.08
71047;SHT31;58703;48.978;8.982;2022-08-03T04:00:09;14.02;87.42
71047;SHT31;58703;48.978;8.982;2022-08-03T04:02:35;13.94;89.26
71047;SHT31;58703;48.978;8.982;2022-08-03T04:05:01;13.97;89.74
71047;SHT31;58703;48.978;8.982;2022-08-03T04:07:55;14.05;89.69
71047;SHT31;58703;48.978;8.982;2022-08-03T04:10:41;14.11;89.06
71047;SHT31;58703;48.978;8.982;2022-08-03T04:13:33;14.21;88.75
71047;SHT31;58703;48.978;8.982;2022-08-03T04:16:00;14.29;87.91
71047;SHT31;58703;48.978;8.982;2022-08-03T04:18:28;14.50;87.80
71047;SHT31;58703;48.978;8.982;2022-08-03T04:20:58;14.63;86.54
71047;SHT31;58703;48.978;8.982;2022-08-03T04:23:26;14.81;86.19
71047;SHT31;58703;48.978;8.982;2022-08-03T04:25:52;14.85;85.69
71047;SHT31;58703;48.978;8.982;2022-08-03T04:28:20;15.11;84.61
71047;SHT31;58703;48.978;8.982;2022-08-03T04:30:47;15.04;84.91
71047;SHT31;58703;48.978;8.982;2022-08-03T04:33:16;15.30;84.24
71047;SHT31;58703;48.978;8.982;2022-08-03T04:35:44;15.55;83.41
71047;SHT31;58703;48.978;8.982;2022-08-03T04:38:12;15.75;82.39
71047;SHT31;58703;48.978;8.982;2022-08-03T04:40:40;15.56;81.43
71047;SHT31;58703;48.978;8.982;2022-08-03T04:43:07;15.65;82.67
71047;SHT31;58703;48.978;8.982;2022-08-03T04:45:35;16.10;81.23
71047;SHT31;58703;48.978;8.982;2022-08-03T04:48:01;16.02;81.10
71047;SHT31;58703;48.978;8.982;2022-08-03T04:50:28;16.09;80.94
71047;SHT31;58703;48.978;8.982;2022-08-03T04:52:54;16.30;79.53
71047;SHT31;58703;48.978;8.982;2022-08-03T04:55:31;16.39;80.42
71047;SHT31;58703;48.978;8.982;2022-08-03T04:57:58;16.85;78.86
71047;SHT31;58703;48.978;8.982;2022-08-03T05:00:24;17.07;77.56
71047;SHT31;58703;48.978;8.982;2022-08-03T05:02:50;17.33;76.02
71047;SHT31;58703;48.978;8.982;2022-08-03T05:05:16;17.53;75.80
71047;SHT31;58703;48.978;8.982;2022-08-03T05:07:42;17.56;75.87
71047;SHT31;58703;48.978;8.982;2022-08-03T05:10:09;17.39;75.70
71047;SHT31;58703;48.978;8.982;2022-08-03T05:12:35;17.53;74.96
71047;SHT31;58703;48.978;8.982;2022-08-03T05:15:01;17.52;76.14
71047;SHT31;58703;48.978;8.982;2022-08-03T05:17:27;17.87;75.23
71047;SHT31;58703;48.978;8.982;2022-08-03T05:19:54;18.71;72.56
71047;SHT31;58703;48.978;8.982;2022-08-03T05:22:23;18.75;71.65
71047;SHT31;58703;48.978;8.982;2022-08-03T05:24:48;19.10;70.84
71047;SHT31;58703;48.978;8.982;2022-08-03T05:27:14;19.07;70.42
71047;SHT31;58703;48.978;8.982;2022-08-03T05:29:48;19.36;68.72
71047;SHT31;58703;48.978;8.982;2022-08-03T05:32:15;19.82;67.97
71047;SHT31;58703;48.978;8.982;2022-08-03T05:34:41;19.95;67.50
71047;SHT31;58703;48.978;8.982;2022-08-03T05:37:07;19.91;67.98
71047;SHT31;58703;48.978;8.982;2022-08-03T05:39:33;19.98;68.16
71047;SHT31;58703;48.978;8.982;2022-08-03T05:41:58;20.15;67.54
71047;SHT31;58703;48.978;8.982;2022-08-03T05:44:24;19.95;68.21
71047;SHT31;58703;48.978;8.982;2022-08-03T05:46:50;19.90;68.82
71047;SHT31;58703;48.978;8.982;2022-08-03T05:49:16;20.05;68.60
71047;SHT31;58703;48.978;8.982;2022-08-03T05:51:42;20.49;67.32
71047;SHT31;58703;48.978;8.982;2022-08-03T05:54:08;20.76;66.93
71047;SHT31;58703;48.978;8.982;2022-08-03T05:56:33;21.07;66.01
71047;SHT31;58703;48.978;8.982;2022-08-03T05:58:59;21.30;65.45
71047;SHT31;58703;48.978;8.982;2022-08-03T06:01:24;21.73;64.82
71047;SHT31;58703;48.978;8.982;2022-08-03T06:03:50;21.73;65.01
71047;SHT31;58703;48.978;8.982;2022-08-03T06:06:16;21.94;65.05
71047;SHT31;58703;48.978;8.982;2022-08-03T06:08:43;21.98;64.78
71047;SHT31;58703;48.978;8.982;2022-08-03T06:11:09;22.12;64.78
71047;SHT31;58703;48.978;8.982;2022-08-03T06:13:35;22.55;63.93
71047;SHT31;58703;48.978;8.982;2022-08-03T06:16:01;22.47;64.46
71047;SHT31;58703;48.978;8.982;2022-08-03T06:18:26;22.84;63.79
71047;SHT31;58703;48.978;8.982;2022-08-03T06:20:52;23.32;62.75
71047;SHT31;58703;48.978;8.982;2022-08-03T06:23:18;23.22;62.31
71047;SHT31;58703;48.978;8.982;2022-08-03T06:25:44;22.84;63.23
71047;SHT31;58703;48.978;8.982;2022-08-03T06:28:11;23.27;62.24
71047;SHT31;58703;48.978;8.982;2022-08-03T06:30:38;23.62;60.89
71047;SHT31;58703;48.978;8.982;2022-08-03T06:33:04;23.73;60.86
71047;SHT31;58703;48.978;8.982;2022-08-03T06:35:29;23.79;60.88
71047;SHT31;58703;48.978;8.982;2022-08-03T06:37:55;23.79;60.36
71047;SHT31;58703;48.978;8.982;2022-08-03T06:40:22;24.02;59.99
71047;SHT31;58703;48.978;8.982;2022-08-03T06:43:00;24.17;58.46
71047;SHT31;58703;48.978;8.982;2022-08-03T06:45:27;24.34;58.25
71047;SHT31;58703;48.978;8.982;2022-08-03T06:48:04;24.09;57.87
71047;SHT31;58703;48.978;8.982;2022-08-03T06:50:30;24.49;57.68
71047;SHT31;58703;48.978;8.982;2022-08-03T06:52:56;24.09;59.14
71047;SHT31;58703;48.978;8.982;2022-08-03T06:55:22;24.91;57.39
71047;SHT31;58703;48.978;8.982;2022-08-03T06:57:48;24.81;56.89
71047;SHT31;58703;48.978;8.982;2022-08-03T07:00:13;25.08;56.15
71047;SHT31;58703;48.978;8.982;2022-08-03T07:02:39;24.90;56.14
71047;SHT31;58703;48.978;8.982;2022-08-03T07:05:06;25.01;55.78
71047;SHT31;58703;48.978;8.982;2022-08-03T07:07:32;24.71;56.29
71047;SHT31;58703;48.978;8.982;2022-08-03T07:09:57;25.53;55.24
71047;SHT31;58703;48.978;8.982;2022-08-03T07:12:23;25.94;54.08
71047;SHT31;58703;48.978;8.982;2022-08-03T07:14:49;25.79;55.15
71047;SHT31;58703;48.978;8.982;2022-08-03T07:17:14;25.75;55.14
71047;SHT31;58703;48.978;8.982;2022-08-03T07:19:40;25.96;54.16
71047;SHT31;58703;48.978;8.982;2022-08-03T07:22:06;26.21;53.57
71047;SHT31;58703;48.978;8.982;2022-08-03T07:24:33;26.91;52.55
71047;SHT31;58703;48.978;8.982;2022-08-03T07:26:58;27.06;51.78
71047;SHT31;58703;48.978;8.982;2022-08-03T07:29:24;27.53;50.89
71047;SHT31;58703;48.978;8.982;2022-08-03T07:31:49;27.57;50.54
71047;SHT31;58703;48.978;8.982;2022-08-03T07:34:15;27.66;49.69
71047;SHT31;58703;48.978;8.982;2022-08-03T07:36:41;27.79;49.12
71047;SHT31;58703;48.978;8.982;2022-08-03T07:39:06;27.70;49.21
71047;SHT31;58703;48.978;8.982;2022-08-03T07:41:32;28.18;48.10
71047;SHT31;58703;48.978;8.982;2022-08-03T07:43:57;28.07;48.83
71047;SHT31;58703;48.978;8.982;2022-08-03T07:46:23;28.21;48.93
71047;SHT31;58703;48.978;8.982;2022-08-03T07:48:49;29.03;48.44
71047;SHT31;58703;48.978;8.982;2022-08-03T07:51:14;28.93;47.77
71047;SHT31;58703;48.978;8.982;2022-08-03T07:53:40;28.89;47.58
71047;SHT31;58703;48.978;8.982;2022-08-03T07:56:05;28.86;48.12
71047;SHT31;58703;48.978;8.982;2022-08-03T07:58:31;28.72;48.05
71047;SHT31;58703;48.978;8.982;2022-08-03T08:00:56;28.34;49.06
71047;SHT31;58703;48.978;8.982;2022-08-03T08:03:22;28.28;48.99
71047;SHT31;58703;48.978;8.982;2022-08-03T08:05:48;27.84;50.14
71047;SHT31;58703;48.978;8.982;2022-08-03T08:08:14;27.60;50.56
71047;SHT31;58703;48.978;8.982;2022-08-03T08:10:39;28.35;49.74
71047;SHT31;58703;48.978;8.982;2022-08-03T08:13:05;29.15;47.85
71047;SHT31;58703;48.978;8.982;2022-08-03T08:15:31;28.79;48.64
71047;SHT31;58703;48.978;8.982;2022-08-03T08:17:59;29.06;47.75
71047;SHT31;58703;48.978;8.982;2022-08-03T08:20:29;29.97;47.04
71047;SHT31;58703;48.978;8.982;2022-08-03T08:22:59;30.40;46.36
71047;SHT31;58703;48.978;8.982;2022-08-03T08:25:26;30.19;45.86
71047;SHT31;58703;48.978;8.982;2022-08-03T08:27:52;29.91;46.74
71047;SHT31;58703;48.978;8.982;2022-08-03T08:30:20;30.90;45.37
71047;SHT31;58703;48.978;8.982;2022-08-03T08:32:47;30.65;45.28
71047;SHT31;58703;48.978;8.982;2022-08-03T08:35:13;30.99;44.63
71047;SHT31;58703;48.978;8.982;2022-08-03T08:37:39;31.20;44.57
71047;SHT31;58703;48.978;8.982;2022-08-03T08:40:06;31.14;43.32
71047;SHT31;58703;48.978;8.982;2022-08-03T08:42:32;31.23;44.07
71047;SHT31;58703;48.978;8.982;2022-08-03T08:45:02;31.13;43.96
71047;SHT31;58703;48.978;8.982;2022-08-03T08:47:30;31.84;43.11
71047;SHT31;58703;48.978;8.982;2022-08-03T08:49:57;31.06;43.91
71047;SHT31;58703;48.978;8.982;2022-08-03T08:52:25;30.90;42.99
71047;SHT31;58703;48.978;8.982;2022-08-03T08:54:56;31.19;42.45
71047;SHT31;58703;48.978;8.982;2022-08-03T08:57:29;31.48;40.60
71047;SHT31;58703;48.978;8.982;2022-08-03T08:59:55;31.71;40.46
71047;SHT31;58703;48.978;8.982;2022-08-03T09:02:23;31.42;40.70
71047;SHT31;58703;48.978;8.982;2022-08-03T09:04:49;31.64;40.12
71047;SHT31;58703;48.978;8.982;2022-08-03T09:07:15;31.60;40.25
71047;SHT31;58703;48.978;8.982;2022-08-03T09:09:40;32.09;38.62
71047;SHT31;58703;48.978;8.982;2022-08-03T09:12:07;32.35;38.95
71047;SHT31;58703;48.978;8.982;2022-08-03T09:14:33;32.11;38.62
71047;SHT31;58703;48.978;8.982;2022-08-03T09:17:00;31.68;38.17
71047;SHT31;58703;48.978;8.982;2022-08-03T09:19:27;33.27;36.76
71047;SHT31;58703;48.978;8.982;2022-08-03T09:22:22;33.11;36.92
71047;SHT31;58703;48.978;8.982;2022-08-03T09:24:58;32.76;36.23
71047;SHT31;58703;48.978;8.982;2022-08-03T09:27:24;33.43;36.19
71047;SHT31;58703;48.978;8.982;2022-08-03T09:29:51;33.58;36.17
71047;SHT31;58703;48.978;8.982;2022-08-03T09:32:22;33.13;36.54
71047;SHT31;58703;48.978;8.982;2022-08-03T09:34:50;33.64;35.80
71047;SHT31;58703;48.978;8.982;2022-08-03T09:37:17;34.15;35.62
71047;SHT31;58703;48.978;8.982;2022-08-03T09:39:43;33.40;35.88
71047;SHT31;58703;48.978;8.982;2022-08-03T09:44:41;32.99;36.38
71047;SHT31;58703;48.978;8.982;2022-08-03T09:47:08;32.46;36.83
71047;SHT31;58703;48.978;8.982;2022-08-03T09:49:41;33.82;34.95
71047;SHT31;58703;48.978;8.982;2022-08-03T09:52:17;32.72;36.40
71047;SHT31;58703;48.978;8.982;2022-08-03T09:54:44;32.88;36.87
71047;SHT31;58703;48.978;8.982;2022-08-03T09:57:22;33.03;36.13
71047;SHT31;58703;48.978;8.982;2022-08-03T09:59:49;33.57;35.40
71047;SHT31;58703;48.978;8.982;2022-08-03T10:02:25;33.79;34.50
71047;SHT31;58703;48.978;8.982;2022-08-03T10:04:52;32.53;36.37
71047;SHT31;58703;48.978;8.982;2022-08-03T10:07:19;33.33;36.12
71047;SHT31;58703;48.978;8.982;2022-08-03T10:10:01;33.59;34.92
71047;SHT31;58703;48.978;8.982;2022-08-03T10:12:27;32.29;37.23
71047;SHT31;58703;48.978;8.982;2022-08-03T10:14:54;33.11;36.07
71047;SHT31;58703;48.978;8.982;2022-08-03T10:17:20;33.88;34.06
71047;SHT31;58703;48.978;8.982;2022-08-03T10:19:48;34.35;33.49
71047;SHT31;58703;48.978;8.982;2022-08-03T10:22:27;34.55;33.70
71047;SHT31;58703;48.978;8.982;2022-08-03T10:25:05;34.64;32.81
71047;SHT31;58703;48.978;8.982;2022-08-03T10:27:34;34.64;33.02
71047;SHT31;58703;48.978;8.982;2022-08-03T10:30:03;34.25;33.74
71047;SHT31;58703;48.978;8.982;2022-08-03T10:32:41;33.58;34.25
71047;SHT31;58703;48.978;8.982;2022-08-03T10:35:17;33.98;33.83
71047;SHT31;58703;48.978;8.982;2022-08-03T10:37:46;35.15;33.36
71047;SHT31;58703;48.978;8.982;2022-08-03T10:40:15;34.26;33.54
71047;SHT31;58703;48.978;8.982;2022-08-03T10:42:45;33.68;34.00
71047;SHT31;58703;48.978;8.982;2022-08-03T10:45:23;34.20;33.63
71047;SHT31;58703;48.978;8.982;2022-08-03T10:47:51;33.34;34.97
71047;SHT31;58703;48.978;8.982;2022-08-03T10:50:18;32.91;35.63
71047;SHT31;58703;48.978;8.982;2022-08-03T10:52:56;32.66;35.58
71047;SHT31;58703;48.978;8.982;2022-08-03T10:55:31;34.52;34.12
71047;SHT31;58703;48.978;8.982;2022-08-03T11:01:01;35.78;32.09
71047;SHT31;58703;48.978;8.982;2022-08-03T11:03:27;35.99;31.60
71047;SHT31;58703;48.978;8.982;2022-08-03T11:08:39;34.27;33.61
71047;SHT31;58703;48.978;8.982;2022-08-03T11:14:06;35.59;32.64
71047;SHT31;58703;48.978;8.982;2022-08-03T11:16:50;35.37;32.28
71047;SHT31;58703;48.978;8.982;2022-08-03T11:19:45;35.71;31.96
71047;SHT31;58703;48.978;8.982;2022-08-03T11:22:11;34.98;32.67
71047;SHT31;58703;48.978;8.982;2022-08-03T11:27:31;36.10;31.19
71047;SHT31;58703;48.978;8.982;2022-08-03T11:30:23;34.52;33.11
71047;SHT31;58703;48.978;8.982;2022-08-03T11:32:52;34.71;32.61
71047;SHT31;58703;48.978;8.982;2022-08-03T11:35:32;33.79;33.51
71047;SHT31;58703;48.978;8.982;2022-08-03T11:40:36;36.49;31.46
71047;SHT31;58703;48.978;8.982;2022-08-03T11:43:04;36.74;30.51
71047;SHT31;58703;48.978;8.982;2022-08-03T11:45:30;36.02;30.64
71047;SHT31;58703;48.978;8.982;2022-08-03T11:47:56;36.12;30.89
71047;SHT31;58703;48.978;8.982;2022-08-03T11:50:24;37.73;28.86
71047;SHT31;58703;48.978;8.982;2022-08-03T11:52:50;36.00;31.12
71047;SHT31;58703;48.978;8.982;2022-08-03T11:55:18;36.43;31.15
71047;SHT31;58703;48.978;8.982;2022-08-03T11:57:46;37.00;29.71
71047;SHT31;58703;48.978;8.982;2022-08-03T12:03:02;37.14;29.84
71047;SHT31;58703;48.978;8.982;2022-08-03T12:05:39;36.50;30.19
71047;SHT31;58703;48.978;8.982;2022-08-03T12:08:07;35.27;31.89
71047;SHT31;58703;48.978;8.982;2022-08-03T12:10:33;35.88;31.73
71047;SHT31;58703;48.978;8.982;2022-08-03T12:13:00;36.22;30.96
71047;SHT31;58703;48.978;8.982;2022-08-03T12:15:28;36.57;29.82
71047;SHT31;58703;48.978;8.982;2022-08-03T12:17:54;35.62;31.45
71047;SHT31;58703;48.978;8.982;2022-08-03T12:20:23;36.43;29.68
71047;SHT31;58703;48.978;8.982;2022-08-03T12:22:48;35.74;30.60
71047;SHT31;58703;48.978;8.982;2022-08-03T12:25:22;35.17;31.10
71047;SHT31;58703;48.978;8.982;2022-08-03T12:27:48;34.57;31.86
71047;SHT31;58703;48.978;8.982;2022-08-03T12:30:14;35.81;31.18
71047;SHT31;58703;48.978;8.982;2022-08-03T12:32:42;36.66;29.30
71047;SHT31;58703;48.978;8.982;2022-08-03T12:35:09;37.75;28.62
71047;SHT31;58703;48.978;8.982;2022-08-03T12:37:35;37.65;28.70
71047;SHT31;58703;48.978;8.982;2022-08-03T12:40:01;34.69;31.77
71047;SHT31;58703;48.978;8.982;2022-08-03T12:42:34;35.23;31.89
71047;SHT31;58703;48.978;8.982;2022-08-03T12:45:25;34.76;32.52
71047;SHT31;58703;48.978;8.982;2022-08-03T12:47:56;34.90;32.64
71047;SHT31;58703;48.978;8.982;2022-08-03T12:50:33;34.96;32.18
71047;SHT31;58703;48.978;8.982;2022-08-03T12:53:00;36.50;29.89
71047;SHT31;58703;48.978;8.982;2022-08-03T12:55:27;38.11;28.87
71047;SHT31;58703;48.978;8.982;2022-08-03T12:58:07;37.52;28.82
71047;SHT31;58703;48.978;8.982;2022-08-03T13:00:35;36.35;30.18
71047;SHT31;58703;48.978;8.982;2022-08-03T13:03:06;35.66;30.75
71047;SHT31;58703;48.978;8.982;2022-08-03T13:05:44;36.32;30.21
71047;SHT31;58703;48.978;8.982;2022-08-03T13:08:21;36.46;29.93
71047;SHT31;58703;48.978;8.982;2022-08-03T13:10:47;36.36;30.33
71047;SHT31;58703;48.978;8.982;2022-08-03T13:13:12;35.79;31.02
71047;SHT31;58703;48.978;8.982;2022-08-03T13:15:38;36.30;30.80
71047;SHT31;58703;48.978;8.982;2022-08-03T13:18:04;37.08;29.66
71047;SHT31;58703;48.978;8.982;2022-08-03T13:20:30;36.56;30.11
71047;SHT31;58703;48.978;8.982;2022-08-03T13:22:55;36.77;30.04
71047;SHT31;58703;48.978;8.982;2022-08-03T13:25:21;37.14;29.50
71047;SHT31;58703;48.978;8.982;2022-08-03T13:27:47;36.41;29.57
71047;SHT31;58703;48.978;8.982;2022-08-03T13:30:14;36.12;30.05
71047;SHT31;58703;48.978;8.982;2022-08-03T13:32:40;36.57;29.48
71047;SHT31;58703;48.978;8.982;2022-08-03T13:35:07;37.78;28.27
71047;SHT31;58703;48.978;8.982;2022-08-03T13:37:33;37.55;28.14
71047;SHT31;58703;48.978;8.982;2022-08-03T13:39:59;37.41;28.68
71047;SHT31;58703;48.978;8.982;2022-08-03T13:42:26;37.90;27.26
71047;SHT31;58703;48.978;8.982;2022-08-03T13:44:52;39.95;25.63
71047;SHT31;58703;48.978;8.982;2022-08-03T13:47:19;41.52;24.80
71047;SHT31;58703;48.978;8.982;2022-08-03T13:49:45;39.93;25.84
71047;SHT31;58703;48.978;8.982;2022-08-03T13:52:10;38.63;27.09
71047;SHT31;58703;48.978;8.982;2022-08-03T13:54:36;38.01;27.71
71047;SHT31;58703;48.978;8.982;2022-08-03T13:57:01;38.02;27.43
71047;SHT31;58703;48.978;8.982;2022-08-03T13:59:27;39.52;26.36
71047;SHT31;58703;48.978;8.982;2022-08-03T14:01:53;37.49;28.08
71047;SHT31;58703;48.978;8.982;2022-08-03T14:04:19;39.84;25.85
71047;SHT31;58703;48.978;8.982;2022-08-03T14:06:46;41.31;24.21
71047;SHT31;58703;48.978;8.982;2022-08-03T14:09:12;42.68;23.61
71047;SHT31;58703;48.978;8.982;2022-08-03T14:11:42;42.58;23.17
71047;SHT31;58703;48.978;8.982;2022-08-03T14:14:07;42.91;23.17
71047;SHT31;58703;48.978;8.982;2022-08-03T14:16:34;39.48;26.49
71047;SHT31;58703;48.978;8.982;2022-08-03T14:19:00;39.39;26.63
71047;SHT31;58703;48.978;8.982;2022-08-03T14:21:25;39.59;26.39
71047;SHT31;58703;48.978;8.982;2022-08-03T14:23:51;40.92;24.60
71047;SHT31;58703;48.978;8.982;2022-08-03T14:26:16;41.58;24.29
71047;SHT31;58703;48.978;8.982;2022-08-03T14:28:44;40.48;25.15
71047;SHT31;58703;48.978;8.982;2022-08-03T14:31:10;40.91;24.81
71047;SHT31;58703;48.978;8.982;2022-08-03T14:33:36;40.19;25.54
71047;SHT31;58703;48.978;8.982;2022-08-03T14:36:01;40.00;25.63
71047;SHT31;58703;48.978;8.982;2022-08-03T14:38:27;39.97;25.75
71047;SHT31;58703;48.978;8.982;2022-08-03T14:40:53;39.52;25.86
71047;SHT31;58703;48.978;8.982;2022-08-03T14:43:18;38.46;26.91
71047;SHT31;58703;48.978;8.982;2022-08-03T14:45:46;39.92;25.86
71047;SHT31;58703;48.978;8.982;2022-08-03T14:48:12;40.61;25.41
71047;SHT31;58703;48.978;8.982;2022-08-03T14:50:38;40.56;25.53
71047;SHT31;58703;48.978;8.982;2022-08-03T14:53:03;40.50;25.32
71047;SHT31;58703;48.978;8.982;2022-08-03T14:55:29;40.46;25.26
71047;SHT31;58703;48.978;8.982;2022-08-03T14:57:55;39.81;25.71
71047;SHT31;58703;48.978;8.982;2022-08-03T15:00:20;39.89;25.48
71047;SHT31;58703;48.978;8.982;2022-08-03T15:02:46;40.39;25.48
71047;SHT31;58703;48.978;8.982;2022-08-03T15:05:11;39.15;26.28
71047;SHT31;58703;48.978;8.982;2022-08-03T15:07:39;39.88;25.80
71047;SHT31;58703;48.978;8.982;2022-08-03T15:10:05;39.25;26.43
71047;SHT31;58703;48.978;8.982;2022-08-03T15:12:30;38.67;27.05
71047;SHT31;58703;48.978;8.982;2022-08-03T15:14:56;38.09;27.27
71047;SHT31;58703;48.978;8.982;2022-08-03T15:17:22;38.22;27.25
71047;SHT31;58703;48.978;8.982;2022-08-03T15:19:47;38.75;26.94
71047;SHT31;58703;48.978;8.982;2022-08-03T15:22:13;39.08;26.27
71047;SHT31;58703;48.978;8.982;2022-08-03T15:24:40;40.16;25.35
71047;SHT31;58703;48.978;8.982;2022-08-03T15:27:06;40.02;25.32
71047;SHT31;58703;48.978;8.982;2022-08-03T15:29:31;42.15;23.56
71047;SHT31;58703;48.978;8.982;2022-08-03T15:31:57;40.57;24.66
71047;SHT31;58703;48.978;8.982;2022-08-03T15:34:22;39.81;25.80
71047;SHT31;58703;48.978;8.982;2022-08-03T15:36:48;40.95;24.41
71047;SHT31;58703;48.978;8.982;2022-08-03T15:39:14;41.94;23.75
71047;SHT31;58703;48.978;8.982;2022-08-03T15:41:39;42.43;23.66
71047;SHT31;58703;48.978;8.982;2022-08-03T15:44:05;40.10;25.33
71047;SHT31;58703;48.978;8.982;2022-08-03T15:46:31;40.77;24.71
71047;SHT31;58703;48.978;8.982;2022-08-03T15:48:56;40.15;25.72
71047;SHT31;58703;48.978;8.982;2022-08-03T15:51:22;40.13;25.41
71047;SHT31;58703;48.978;8.982;2022-08-03T15:53:47;39.37;26.39
71047;SHT31;58703;48.978;8.982;2022-08-03T15:56:13;39.08;26.07
71047;SHT31;58703;48.978;8.982;2022-08-03T15:58:38;39.44;26.14
71047;SHT31;58703;48.978;8.982;2022-08-03T16:01:05;39.28;26.47
71047;SHT31;58703;48.978;8.982;2022-08-03T16:03:31;38.77;26.76
71047;SHT31;58703;48.978;8.982;2022-08-03T16:06:01;39.68;26.34
71047;SHT31;58703;48.978;8.982;2022-08-03T16:08:27;40.00;25.63